Terminal Aerodrome Forecast
Issued by NWS Sioux Falls, SD

Home | Current Version | Previous Version | Graphics & Text | Print | Product List | Glossary Off
Versions: 1 2 3 4 5 6 7 8 9 10 11 12 13 14

000
FTUS43 KFSD 282300
TAFFSD
TAF
KFSD 282321Z 2900/2924 01007KT P6SM SCT045
     FM290200 VRB03KT P6SM FEW040
     FM291800 34006KT P6SM SCT045=

USA.gov is the U.S. government's official web portal to all federal, state and local government web resources and services.